sensor_id;sensor_type;location;lat;lon;timestamp;pressure;altitude;pressure_sealevel;temperature;humidity
55171;BME280;41060;47.510;8.680;2023-02-11T00:00:58;99076.63;;;1.47;46.89
55171;BME280;41060;47.510;8.680;2023-02-11T00:03:25;98920.97;;;0.72;45.76
55171;BME280;41060;47.510;8.680;2023-02-11T00:05:58;99093.78;;;1.67;46.30
55171;BME280;41060;47.510;8.680;2023-02-11T00:08:25;99015.25;;;1.15;46.28
55171;BME280;41060;47.510;8.680;2023-02-11T00:10:52;98999.50;;;1.23;46.25
55171;BME280;41060;47.510;8.680;2023-02-11T00:13:21;98873.50;;;0.46;45.32
55171;BME280;41060;47.510;8.680;2023-02-11T00:15:49;99091.63;;;1.98;45.95
55171;BME280;41060;47.510;8.680;2023-02-11T00:18:16;99087.19;;;2.03;45.28
55171;BME280;41060;47.510;8.680;2023-02-11T00:20:42;99082.50;;;1.65;45.77
55171;BME280;41060;47.510;8.680;2023-02-11T00:23:09;99088.75;;;1.52;46.33
55171;BME280;41060;47.510;8.680;2023-02-11T00:25:38;99095.13;;;1.28;46.98
55171;BME280;41060;47.510;8.680;2023-02-11T00:28:05;99099.53;;;1.25;47.16
55171;BME280;41060;47.510;8.680;2023-02-11T00:30:33;99099.44;;;1.31;46.88
55171;BME280;41060;47.510;8.680;2023-02-11T00:33:00;99061.22;;;1.27;47.10
55171;BME280;41060;47.510;8.680;2023-02-11T00:35:27;99096.59;;;1.51;46.20
55171;BME280;41060;47.510;8.680;2023-02-11T00:37:54;99082.66;;;1.52;46.13
55171;BME280;41060;47.510;8.680;2023-02-11T00:40:21;99086.81;;;1.68;46.59
55171;BME280;41060;47.510;8.680;2023-02-11T00:42:47;99069.63;;;1.50;46.10
55171;BME280;41060;47.510;8.680;2023-02-11T00:45:15;99089.63;;;1.53;46.29
55171;BME280;41060;47.510;8.680;2023-02-11T00:47:42;99060.13;;;1.45;45.73
55171;BME280;41060;47.510;8.680;2023-02-11T00:50:09;99076.47;;;1.60;45.91
55171;BME280;41060;47.510;8.680;2023-02-11T00:52:36;99072.88;;;1.69;46.33
55171;BME280;41060;47.510;8.680;2023-02-11T00:55:03;99065.25;;;1.52;45.89
55171;BME280;41060;47.510;8.680;2023-02-11T00:57:30;99075.81;;;1.43;45.95
55171;BME280;41060;47.510;8.680;2023-02-11T00:59:57;99061.88;;;1.44;46.34
55171;BME280;41060;47.510;8.680;2023-02-11T01:02:24;99055.81;;;1.42;46.10
55171;BME280;41060;47.510;8.680;2023-02-11T01:04:51;99070.41;;;1.58;45.67
55171;BME280;41060;47.510;8.680;2023-02-11T01:07:19;98953.75;;;0.96;45.23
55171;BME280;41060;47.510;8.680;2023-02-11T01:09:45;99064.34;;;1.56;45.47
55171;BME280;41060;47.510;8.680;2023-02-11T01:12:14;99000.53;;;1.10;46.28
55171;BME280;41060;47.510;8.680;2023-02-11T01:14:42;99054.00;;;1.47;46.12
55171;BME280;41060;47.510;8.680;2023-02-11T01:17:08;99049.56;;;1.55;45.75
55171;BME280;41060;47.510;8.680;2023-02-11T01:19:35;99040.00;;;1.53;45.80
55171;BME280;41060;47.510;8.680;2023-02-11T01:22:04;99025.22;;;1.50;45.63
55171;BME280;41060;47.510;8.680;2023-02-11T01:24:30;98920.72;;;0.92;45.49
55171;BME280;41060;47.510;8.680;2023-02-11T01:26:57;98877.53;;;0.73;45.27
55171;BME280;41060;47.510;8.680;2023-02-11T01:29:24;98900.81;;;0.85;46.13
55171;BME280;41060;47.510;8.680;2023-02-11T01:31:51;98995.97;;;1.27;46.16
55171;BME280;41060;47.510;8.680;2023-02-11T01:34:17;99034.28;;;1.23;46.80
55171;BME280;41060;47.510;8.680;2023-02-11T01:36:44;98974.88;;;0.73;46.46
55171;BME280;41060;47.510;8.680;2023-02-11T01:39:12;99022.50;;;0.90;47.34
55171;BME280;41060;47.510;8.680;2023-02-11T01:41:39;98963.00;;;0.45;47.05
55171;BME280;41060;47.510;8.680;2023-02-11T01:44:25;99026.94;;;0.82;47.61
55171;BME280;41060;47.510;8.680;2023-02-11T01:46:52;99024.69;;;0.44;48.20
55171;BME280;41060;47.510;8.680;2023-02-11T01:49:22;98839.91;;;-0.75;48.34
55171;BME280;41060;47.510;8.680;2023-02-11T01:51:53;98985.97;;;0.00;48.65
55171;BME280;41060;47.510;8.680;2023-02-11T01:54:25;99018.88;;;0.10;48.83
55171;BME280;41060;47.510;8.680;2023-02-11T01:57:14;99025.75;;;0.23;48.74
55171;BME280;41060;47.510;8.680;2023-02-11T02:00:00;99026.47;;;0.38;48.88
55171;BME280;41060;47.510;8.680;2023-02-11T02:02:33;98948.72;;;-0.08;48.91
55171;BME280;41060;47.510;8.680;2023-02-11T02:05:07;99021.94;;;0.61;48.43
55171;BME280;41060;47.510;8.680;2023-02-11T02:07:40;98995.81;;;0.66;47.67
55171;BME280;41060;47.510;8.680;2023-02-11T02:10:13;98993.81;;;0.90;47.97
55171;BME280;41060;47.510;8.680;2023-02-11T02:12:42;98902.34;;;0.29;47.91
55171;BME280;41060;47.510;8.680;2023-02-11T02:15:21;98928.19;;;0.50;48.10
55171;BME280;41060;47.510;8.680;2023-02-11T02:17:56;98848.97;;;-0.18;48.24
55171;BME280;41060;47.510;8.680;2023-02-11T02:20:55;98928.53;;;0.14;48.13
55171;BME280;41060;47.510;8.680;2023-02-11T02:23:45;98981.31;;;0.36;48.56
55171;BME280;41060;47.510;8.680;2023-02-11T02:32:36;99003.97;;;0.26;48.34
55171;BME280;41060;47.510;8.680;2023-02-11T02:35:11;98999.00;;;-0.03;48.85
55171;BME280;41060;47.510;8.680;2023-02-11T02:37:46;99012.19;;;-0.23;49.93
55171;BME280;41060;47.510;8.680;2023-02-11T02:40:20;99023.41;;;-0.19;50.45
55171;BME280;41060;47.510;8.680;2023-02-11T02:42:49;99016.31;;;0.09;49.55
55171;BME280;41060;47.510;8.680;2023-02-11T02:45:16;98999.53;;;0.39;48.34
55171;BME280;41060;47.510;8.680;2023-02-11T02:47:44;98994.25;;;0.46;48.30
55171;BME280;41060;47.510;8.680;2023-02-11T02:50:14;99008.81;;;0.67;48.24
55171;BME280;41060;47.510;8.680;2023-02-11T02:52:51;99010.44;;;0.80;48.19
55171;BME280;41060;47.510;8.680;2023-02-11T02:55:32;99018.09;;;0.92;47.61
55171;BME280;41060;47.510;8.680;2023-02-11T03:01:13;98892.72;;;0.36;47.57
55171;BME280;41060;47.510;8.680;2023-02-11T03:03:53;99004.00;;;1.09;47.57
55171;BME280;41060;47.510;8.680;2023-02-11T03:06:29;98998.72;;;1.15;47.55
55171;BME280;41060;47.510;8.680;2023-02-11T03:09:02;98948.59;;;0.90;47.04
55171;BME280;41060;47.510;8.680;2023-02-11T03:11:33;98949.56;;;0.81;46.61
55171;BME280;41060;47.510;8.680;2023-02-11T03:14:02;98997.75;;;1.22;46.89
55171;BME280;41060;47.510;8.680;2023-02-11T03:16:30;99005.56;;;1.25;47.25
55171;BME280;41060;47.510;8.680;2023-02-11T03:19:10;99002.03;;;1.29;47.22
55171;BME280;41060;47.510;8.680;2023-02-11T03:21:39;98936.38;;;0.93;46.75
55171;BME280;41060;47.510;8.680;2023-02-11T03:24:11;98932.91;;;0.91;47.49
55171;BME280;41060;47.510;8.680;2023-02-11T03:26:42;98995.91;;;1.31;47.48
55171;BME280;41060;47.510;8.680;2023-02-11T03:29:16;98992.50;;;1.26;47.06
55171;BME280;41060;47.510;8.680;2023-02-11T03:31:51;98984.66;;;1.28;47.04
55171;BME280;41060;47.510;8.680;2023-02-11T03:34:28;98974.16;;;1.29;47.01
55171;BME280;41060;47.510;8.680;2023-02-11T03:37:00;98976.00;;;1.23;47.04
55171;BME280;41060;47.510;8.680;2023-02-11T03:39:33;98962.09;;;1.21;47.38
55171;BME280;41060;47.510;8.680;2023-02-11T03:42:03;98891.53;;;0.62;47.42
55171;BME280;41060;47.510;8.680;2023-02-11T03:44:35;98953.38;;;0.51;47.49
55171;BME280;41060;47.510;8.680;2023-02-11T03:47:04;98904.44;;;-0.11;48.63
55171;BME280;41060;47.510;8.680;2023-02-11T03:49:37;98966.69;;;0.18;48.79
55171;BME280;41060;47.510;8.680;2023-02-11T03:52:06;98970.03;;;0.34;48.39
55171;BME280;41060;47.510;8.680;2023-02-11T03:54:38;98934.50;;;0.25;48.22
55171;BME280;41060;47.510;8.680;2023-02-11T03:57:07;98966.53;;;0.38;47.80
55171;BME280;41060;47.510;8.680;2023-02-11T03:59:49;98777.69;;;-1.05;48.72
55171;BME280;41060;47.510;8.680;2023-02-11T04:02:16;98960.06;;;-0.17;49.50
55171;BME280;41060;47.510;8.680;2023-02-11T04:04:45;98961.75;;;-0.12;49.39
55171;BME280;41060;47.510;8.680;2023-02-11T04:07:12;98977.34;;;-0.11;48.87
55171;BME280;41060;47.510;8.680;2023-02-11T04:09:39;98959.13;;;-0.12;49.09
55171;BME280;41060;47.510;8.680;2023-02-11T04:12:06;98954.78;;;-0.07;48.97
55171;BME280;41060;47.510;8.680;2023-02-11T04:14:33;98962.47;;;0.09;48.67
55171;BME280;41060;47.510;8.680;2023-02-11T04:17:00;98961.56;;;0.10;48.33
55171;BME280;41060;47.510;8.680;2023-02-11T04:19:30;98778.66;;;-1.17;48.69
55171;BME280;41060;47.510;8.680;2023-02-11T04:21:58;98963.53;;;-0.16;48.94
55171;BME280;41060;47.510;8.680;2023-02-11T04:24:25;98958.25;;;-0.07;48.64
55171;BME280;41060;47.510;8.680;2023-02-11T04:26:52;98960.91;;;-0.16;48.52
55171;BME280;41060;47.510;8.680;2023-02-11T04:29:18;98952.41;;;-0.39;49.31
55171;BME280;41060;47.510;8.680;2023-02-11T04:31:45;98769.25;;;-1.41;49.31
55171;BME280;41060;47.510;8.680;2023-02-11T04:34:12;98962.66;;;-0.20;49.23
55171;BME280;41060;47.510;8.680;2023-02-11T04:36:39;98962.72;;;-0.26;49.07
55171;BME280;41060;47.510;8.680;2023-02-11T04:39:08;98964.38;;;-0.14;48.92
55171;BME280;41060;47.510;8.680;2023-02-11T04:41:34;98968.78;;;-0.25;49.89
55171;BME280;41060;47.510;8.680;2023-02-11T04:44:01;98973.16;;;-0.29;50.24
55171;BME280;41060;47.510;8.680;2023-02-11T04:46:28;98971.44;;;-0.31;50.25
55171;BME280;41060;47.510;8.680;2023-02-11T04:48:55;98859.25;;;-1.21;50.34
55171;BME280;41060;47.510;8.680;2023-02-11T04:51:22;98979.34;;;-0.48;50.58
55171;BME280;41060;47.510;8.680;2023-02-11T04:53:49;98968.88;;;-0.39;50.26
55171;BME280;41060;47.510;8.680;2023-02-11T04:56:17;98978.28;;;-0.18;49.67
55171;BME280;41060;47.510;8.680;2023-02-11T04:58:43;98969.56;;;-0.11;48.96
55171;BME280;41060;47.510;8.680;2023-02-11T05:01:13;98931.41;;;-0.20;48.72
55171;BME280;41060;47.510;8.680;2023-02-11T05:03:40;98984.03;;;0.23;48.15
55171;BME280;41060;47.510;8.680;2023-02-11T05:06:08;98921.91;;;-0.22;48.70
55171;BME280;41060;47.510;8.680;2023-02-11T05:08:36;98978.97;;;0.08;48.61
55171;BME280;41060;47.510;8.680;2023-02-11T05:11:07;98971.97;;;0.15;48.51
55171;BME280;41060;47.510;8.680;2023-02-11T05:13:35;98758.69;;;-1.15;48.55
55171;BME280;41060;47.510;8.680;2023-02-11T05:16:03;98975.38;;;0.17;48.22
55171;BME280;41060;47.510;8.680;2023-02-11T05:18:29;98973.69;;;0.16;48.48
55171;BME280;41060;47.510;8.680;2023-02-11T05:20:56;98973.75;;;0.08;48.96
55171;BME280;41060;47.510;8.680;2023-02-11T05:23:23;98956.41;;;0.04;48.75
55171;BME280;41060;47.510;8.680;2023-02-11T05:25:49;98842.41;;;-0.63;48.12
55171;BME280;41060;47.510;8.680;2023-02-11T05:28:16;99002.44;;;0.02;48.24
55171;BME280;41060;47.510;8.680;2023-02-11T05:30:44;98951.69;;;-0.60;48.64
55171;BME280;41060;47.510;8.680;2023-02-11T05:33:11;99003.59;;;-0.41;49.27
55171;BME280;41060;47.510;8.680;2023-02-11T05:35:38;99009.75;;;-0.53;49.64
55171;BME280;41060;47.510;8.680;2023-02-11T05:38:05;99014.13;;;-0.61;49.84
55171;BME280;41060;47.510;8.680;2023-02-11T05:40:31;98888.78;;;-1.44;49.88
55171;BME280;41060;47.510;8.680;2023-02-11T05:42:58;99022.78;;;-0.62;50.01
55171;BME280;41060;47.510;8.680;2023-02-11T05:45:25;99023.72;;;-0.74;50.85
55171;BME280;41060;47.510;8.680;2023-02-11T05:47:53;99018.41;;;-0.56;50.57
55171;BME280;41060;47.510;8.680;2023-02-11T05:50:19;98853.25;;;-1.39;49.46
55171;BME280;41060;47.510;8.680;2023-02-11T05:52:47;99025.25;;;-0.30;49.13
55171;BME280;41060;47.510;8.680;2023-02-11T05:55:13;98936.09;;;-0.66;48.68
55171;BME280;41060;47.510;8.680;2023-02-11T05:57:40;99028.50;;;0.01;48.39
55171;BME280;41060;47.510;8.680;2023-02-11T06:00:09;99020.69;;;0.01;48.28
55171;BME280;41060;47.510;8.680;2023-02-11T06:02:36;98840.91;;;-0.96;48.17
55171;BME280;41060;47.510;8.680;2023-02-11T06:05:04;99040.47;;;0.24;48.30
55171;BME280;41060;47.510;8.680;2023-02-11T06:07:31;99023.19;;;0.14;48.81
55171;BME280;41060;47.510;8.680;2023-02-11T06:09:58;99037.84;;;0.28;48.65
55171;BME280;41060;47.510;8.680;2023-02-11T06:12:25;99022.34;;;0.11;48.78
55171;BME280;41060;47.510;8.680;2023-02-11T06:14:52;99001.59;;;0.02;48.44
55171;BME280;41060;47.510;8.680;2023-02-11T06:17:19;99037.91;;;0.21;47.96
55171;BME280;41060;47.510;8.680;2023-02-11T06:19:45;98968.72;;;-0.18;47.96
55171;BME280;41060;47.510;8.680;2023-02-11T06:22:14;99030.94;;;0.23;48.33
55171;BME280;41060;47.510;8.680;2023-02-11T06:24:40;99036.94;;;0.33;47.52
55171;BME280;41060;47.510;8.680;2023-02-11T06:27:07;99041.25;;;0.39;47.62
55171;BME280;41060;47.510;8.680;2023-02-11T06:29:35;99045.56;;;0.41;47.81
55171;BME280;41060;47.510;8.680;2023-02-11T06:32:01;98951.38;;;-0.14;47.78
55171;BME280;41060;47.510;8.680;2023-02-11T06:34:28;99046.41;;;0.43;47.78
55171;BME280;41060;47.510;8.680;2023-02-11T06:36:55;99035.19;;;0.37;47.93
55171;BME280;41060;47.510;8.680;2023-02-11T06:39:23;99021.34;;;0.26;47.98
55171;BME280;41060;47.510;8.680;2023-02-11T06:41:50;99039.47;;;0.42;47.72
55171;BME280;41060;47.510;8.680;2023-02-11T06:44:17;99013.41;;;0.42;48.06
55171;BME280;41060;47.510;8.680;2023-02-11T06:46:43;99023.75;;;0.53;47.68
55171;BME280;41060;47.510;8.680;2023-02-11T06:49:10;99002.97;;;0.45;47.61
55171;BME280;41060;47.510;8.680;2023-02-11T06:51:38;98999.44;;;0.48;47.61
55171;BME280;41060;47.510;8.680;2023-02-11T06:54:05;98996.00;;;0.44;48.09
55171;BME280;41060;47.510;8.680;2023-02-11T06:56:33;99008.97;;;0.52;47.77
55171;BME280;41060;47.510;8.680;2023-02-11T06:59:01;99004.59;;;0.54;48.05
55171;BME280;41060;47.510;8.680;2023-02-11T07:01:28;98999.41;;;0.52;47.71
55171;BME280;41060;47.510;8.680;2023-02-11T07:03:54;98998.53;;;0.53;48.15
55171;BME280;41060;47.510;8.680;2023-02-11T07:06:24;98990.75;;;0.49;48.21
55171;BME280;41060;47.510;8.680;2023-02-11T07:08:52;98749.00;;;-0.91;48.04
55171;BME280;41060;47.510;8.680;2023-02-11T07:11:21;98980.41;;;0.40;48.49
55171;BME280;41060;47.510;8.680;2023-02-11T07:13:52;98943.38;;;0.04;49.03
55171;BME280;41060;47.510;8.680;2023-02-11T07:16:20;98972.91;;;0.03;49.76
55171;BME280;41060;47.510;8.680;2023-02-11T07:18:47;98974.75;;;-0.11;49.27
55171;BME280;41060;47.510;8.680;2023-02-11T07:21:17;98931.00;;;-0.87;50.24
55171;BME280;41060;47.510;8.680;2023-02-11T07:23:44;98959.63;;;-0.90;50.79
55171;BME280;41060;47.510;8.680;2023-02-11T07:26:14;98980.38;;;-0.73;50.87
55171;BME280;41060;47.510;8.680;2023-02-11T07:28:42;98906.06;;;-1.30;51.62
55171;BME280;41060;47.510;8.680;2023-02-11T07:31:13;98981.16;;;-0.64;51.55
55171;BME280;41060;47.510;8.680;2023-02-11T07:33:39;98978.44;;;-0.41;50.40
55171;BME280;41060;47.510;8.680;2023-02-11T07:36:09;98985.28;;;-0.22;49.83
55171;BME280;41060;47.510;8.680;2023-02-11T07:38:36;98956.63;;;-0.26;49.53
55171;BME280;41060;47.510;8.680;2023-02-11T07:41:04;98971.16;;;0.07;49.20
55171;BME280;41060;47.510;8.680;2023-02-11T07:43:33;98964.22;;;0.07;50.01
55171;BME280;41060;47.510;8.680;2023-02-11T07:46:02;98928.56;;;0.11;49.32
55171;BME280;41060;47.510;8.680;2023-02-11T07:48:30;98923.28;;;0.18;49.61
55171;BME280;41060;47.510;8.680;2023-02-11T07:51:04;98927.47;;;0.35;48.90
55171;BME280;41060;47.510;8.680;2023-02-11T07:53:31;98903.22;;;0.25;49.71
55171;BME280;41060;47.510;8.680;2023-02-11T07:55:58;98953.59;;;0.29;50.36
55171;BME280;41060;47.510;8.680;2023-02-11T07:58:24;98920.25;;;-0.29;51.78
55171;BME280;41060;47.510;8.680;2023-02-11T08:00:51;98754.41;;;-1.20;51.66
55171;BME280;41060;47.510;8.680;2023-02-11T08:03:18;98961.72;;;-0.08;52.20
55171;BME280;41060;47.510;8.680;2023-02-11T08:05:46;98958.31;;;-0.16;53.38
55171;BME280;41060;47.510;8.680;2023-02-11T08:08:12;98917.53;;;-0.17;54.93
55171;BME280;41060;47.510;8.680;2023-02-11T08:10:40;98914.09;;;-0.22;56.01
55171;BME280;41060;47.510;8.680;2023-02-11T08:13:06;98931.94;;;0.22;55.01
55171;BME280;41060;47.510;8.680;2023-02-11T08:15:33;98774.47;;;-0.31;54.30
55171;BME280;41060;47.510;8.680;2023-02-11T08:18:00;98946.72;;;1.01;52.27
55171;BME280;41060;47.510;8.680;2023-02-11T08:20:27;98905.34;;;0.71;51.67
55171;BME280;41060;47.510;8.680;2023-02-11T08:22:55;98951.59;;;1.27;51.70
55171;BME280;41060;47.510;8.680;2023-02-11T08:25:22;98963.81;;;1.25;50.65
55171;BME280;41060;47.510;8.680;2023-02-11T08:27:48;98971.81;;;1.13;51.94
55171;BME280;41060;47.510;8.680;2023-02-11T08:30:15;98966.44;;;1.23;52.28
55171;BME280;41060;47.510;8.680;2023-02-11T08:32:42;98976.69;;;1.37;51.58
55171;BME280;41060;47.510;8.680;2023-02-11T08:35:09;98989.88;;;1.26;52.18
55171;BME280;41060;47.510;8.680;2023-02-11T08:37:37;98943.31;;;0.94;52.17
55171;BME280;41060;47.510;8.680;2023-02-11T08:40:06;98993.41;;;1.21;52.94
55171;BME280;41060;47.510;8.680;2023-02-11T08:42:38;99017.13;;;1.06;53.48
55171;BME280;41060;47.510;8.680;2023-02-11T08:45:09;99019.66;;;1.10;52.69
55171;BME280;41060;47.510;8.680;2023-02-11T08:47:36;99031.69;;;1.23;52.46
55171;BME280;41060;47.510;8.680;2023-02-11T08:50:03;98998.28;;;0.78;53.21
55171;BME280;41060;47.510;8.680;2023-02-11T08:52:31;98866.22;;;-0.06;53.59
55171;BME280;41060;47.510;8.680;2023-02-11T08:54:58;98968.00;;;0.61;53.62
55171;BME280;41060;47.510;8.680;2023-02-11T08:57:26;99040.16;;;1.42;52.50
55171;BME280;41060;47.510;8.680;2023-02-11T08:59:53;99042.03;;;1.31;52.73
55171;BME280;41060;47.510;8.680;2023-02-11T09:02:19;99054.31;;;1.21;53.00
55171;BME280;41060;47.510;8.680;2023-02-11T09:04:46;99053.22;;;1.40;52.34
55171;BME280;41060;47.510;8.680;2023-02-11T09:07:13;99047.94;;;1.45;52.08
55171;BME280;41060;47.510;8.680;2023-02-11T09:09:40;99043.47;;;1.56;51.87
55171;BME280;41060;47.510;8.680;2023-02-11T09:12:06;98980.84;;;1.50;51.49
55171;BME280;41060;47.510;8.680;2023-02-11T09:14:35;99025.44;;;1.98;50.52
55171;BME280;41060;47.510;8.680;2023-02-11T09:17:02;99032.31;;;2.05;50.32
55171;BME280;41060;47.510;8.680;2023-02-11T09:19:29;99005.19;;;2.13;49.56
55171;BME280;41060;47.510;8.680;2023-02-11T09:21:56;99000.59;;;2.28;49.06
55171;BME280;41060;47.510;8.680;2023-02-11T09:24:23;98978.59;;;2.39;49.69
55171;BME280;41060;47.510;8.680;2023-02-11T09:26:49;98982.63;;;2.58;48.91
55171;BME280;41060;47.510;8.680;2023-02-11T09:29:19;98989.47;;;2.66;49.57
55171;BME280;41060;47.510;8.680;2023-02-11T09:31:49;98984.09;;;2.73;48.31
55171;BME280;41060;47.510;8.680;2023-02-11T09:34:15;98965.09;;;2.64;47.75
55171;BME280;41060;47.510;8.680;2023-02-11T09:36:43;98981.19;;;2.88;47.84
55171;BME280;41060;47.510;8.680;2023-02-11T09:39:12;98985.34;;;2.98;47.71
55171;BME280;41060;47.510;8.680;2023-02-11T09:41:56;98979.03;;;3.09;47.62
55171;BME280;41060;47.510;8.680;2023-02-11T09:44:27;98980.78;;;3.08;48.64
55171;BME280;41060;47.510;8.680;2023-02-11T09:46:59;98904.31;;;2.49;48.11
55171;BME280;41060;47.510;8.680;2023-02-11T09:49:38;98977.97;;;3.19;47.22
55171;BME280;41060;47.510;8.680;2023-02-11T09:52:12;98968.19;;;3.27;47.11
55171;BME280;41060;47.510;8.680;2023-02-11T09:54:50;98941.34;;;3.17;46.70
55171;BME280;41060;47.510;8.680;2023-02-11T09:57:19;98975.84;;;3.38;47.25
55171;BME280;41060;47.510;8.680;2023-02-11T09:59:46;98947.00;;;3.41;46.38
55171;BME280;41060;47.510;8.680;2023-02-11T10:02:20;98957.31;;;3.47;47.13
55171;BME280;41060;47.510;8.680;2023-02-11T10:07:59;98984.41;;;3.03;47.71
55171;BME280;41060;47.510;8.680;2023-02-11T10:10:38;98977.41;;;3.03;48.36
55171;BME280;41060;47.510;8.680;2023-02-11T10:13:29;98946.63;;;2.71;48.54
55171;BME280;41060;47.510;8.680;2023-02-11T10:16:05;98805.84;;;2.05;48.64
55171;BME280;41060;47.510;8.680;2023-02-11T10:18:46;98971.03;;;3.16;49.00
55171;BME280;41060;47.510;8.680;2023-02-11T10:21:26;98898.50;;;2.80;47.68
55171;BME280;41060;47.510;8.680;2023-02-11T10:23:59;98976.41;;;3.10;47.98
55171;BME280;41060;47.510;8.680;2023-02-11T10:26:30;98975.94;;;3.31;48.00
55171;BME280;41060;47.510;8.680;2023-02-11T10:29:00;98990.66;;;3.37;48.08
55171;BME280;41060;47.510;8.680;2023-02-11T10:31:34;98982.16;;;3.27;47.20
55171;BME280;41060;47.510;8.680;2023-02-11T10:34:09;98933.94;;;2.96;47.82
55171;BME280;41060;47.510;8.680;2023-02-11T10:36:38;98991.22;;;3.54;46.85
55171;BME280;41060;47.510;8.680;2023-02-11T10:39:16;98995.94;;;3.77;46.76
55171;BME280;41060;47.510;8.680;2023-02-11T10:41:45;98982.16;;;3.69;46.24
55171;BME280;41060;47.510;8.680;2023-02-11T10:44:21;99006.91;;;3.94;46.09
55171;BME280;41060;47.510;8.680;2023-02-11T10:46:49;98815.91;;;2.68;46.17
55171;BME280;41060;47.510;8.680;2023-02-11T10:49:37;98984.84;;;4.03;45.42
55171;BME280;41060;47.510;8.680;2023-02-11T10:52:18;98927.91;;;3.72;45.21
55171;BME280;41060;47.510;8.680;2023-02-11T10:54:59;98971.25;;;3.87;44.78
55171;BME280;41060;47.510;8.680;2023-02-11T10:57:32;98967.22;;;3.72;45.44
55171;BME280;41060;47.510;8.680;2023-02-11T11:00:06;98821.94;;;3.12;45.54
55171;BME280;41060;47.510;8.680;2023-02-11T11:02:35;98968.25;;;4.02;45.23
55171;BME280;41060;47.510;8.680;2023-02-11T11:05:14;98936.41;;;3.82;45.01
55171;BME280;41060;47.510;8.680;2023-02-11T11:07:50;98918.44;;;4.02;45.18
55171;BME280;41060;47.510;8.680;2023-02-11T11:10:26;98953.75;;;4.57;44.52
55171;BME280;41060;47.510;8.680;2023-02-11T11:12:54;98953.50;;;4.68;43.55
55171;BME280;41060;47.510;8.680;2023-02-11T11:15:22;98927.94;;;4.08;44.42
55171;BME280;41060;47.510;8.680;2023-02-11T11:17:49;98946.13;;;3.79;45.75
55171;BME280;41060;47.510;8.680;2023-02-11T11:20:22;98893.78;;;3.39;46.05
55171;BME280;41060;47.510;8.680;2023-02-11T11:22:50;98934.34;;;3.58;46.33
55171;BME280;41060;47.510;8.680;2023-02-11T11:25:21;98851.41;;;3.20;45.39
55171;BME280;41060;47.510;8.680;2023-02-11T11:27:48;98924.97;;;3.86;46.07
55171;BME280;41060;47.510;8.680;2023-02-11T11:30:15;98937.50;;;4.44;45.14
55171;BME280;41060;47.510;8.680;2023-02-11T11:32:43;98864.78;;;4.49;44.27
55171;BME280;41060;47.510;8.680;2023-02-11T11:35:23;98938.00;;;5.20;43.03
55171;BME280;41060;47.510;8.680;2023-02-11T11:37:53;98902.16;;;5.19;41.94
55171;BME280;41060;47.510;8.680;2023-02-11T11:40:23;98924.31;;;5.39;41.56
55171;BME280;41060;47.510;8.680;2023-02-11T11:43:04;98806.38;;;5.02;41.45
55171;BME280;41060;47.510;8.680;2023-02-11T11:45:31;98908.44;;;5.99;40.73
55171;BME280;41060;47.510;8.680;2023-02-11T11:48:01;98876.41;;;6.13;40.24
55171;BME280;41060;47.510;8.680;2023-02-11T11:50:34;98788.16;;;5.78;39.79
55171;BME280;41060;47.510;8.680;2023-02-11T11:53:04;98905.81;;;6.75;39.51
55171;BME280;41060;47.510;8.680;2023-02-11T11:55:38;98717.47;;;5.95;39.00
55171;BME280;41060;47.510;8.680;2023-02-11T11:58:12;98890.53;;;7.31;37.74
55171;BME280;41060;47.510;8.680;2023-02-11T12:00:53;98896.00;;;7.48;36.62
55171;BME280;41060;47.510;8.680;2023-02-11T12:03:39;98886.88;;;7.57;36.83
55171;BME280;41060;47.510;8.680;2023-02-11T12:06:21;98889.63;;;7.54;36.56
55171;BME280;41060;47.510;8.680;2023-02-11T12:08:59;98855.63;;;7.48;36.14
55171;BME280;41060;47.510;8.680;2023-02-11T12:11:36;98884.06;;;7.61;36.00
55171;BME280;41060;47.510;8.680;2023-02-11T12:14:13;98874.94;;;7.48;36.20
55171;BME280;41060;47.510;8.680;2023-02-11T12:16:54;98868.28;;;7.38;37.10
55171;BME280;41060;47.510;8.680;2023-02-11T12:19:34;98633.63;;;6.11;36.66
55171;BME280;41060;47.510;8.680;2023-02-11T12:22:10;98857.38;;;7.47;36.54
55171;BME280;41060;47.510;8.680;2023-02-11T12:24:48;98719.06;;;6.47;36.44
55171;BME280;41060;47.510;8.680;2023-02-11T12:27:25;98853.53;;;7.34;36.85
55171;BME280;41060;47.510;8.680;2023-02-11T12:30:04;98823.44;;;7.40;36.99
55171;BME280;41060;47.510;8.680;2023-02-11T12:32:43;98860.22;;;7.65;36.92
55171;BME280;41060;47.510;8.680;2023-02-11T12:35:37;98847.97;;;7.85;36.03
55171;BME280;41060;47.510;8.680;2023-02-11T12:38:21;98804.41;;;7.53;36.44
55171;BME280;41060;47.510;8.680;2023-02-11T12:40:56;98858.81;;;8.20;35.72
55171;BME280;41060;47.510;8.680;2023-02-11T12:43:33;98674.19;;;7.37;34.87
55171;BME280;41060;47.510;8.680;2023-02-11T12:46:12;98851.78;;;8.61;34.95
55171;BME280;41060;47.510;8.680;2023-02-11T12:49:00;98808.59;;;8.42;35.04
55171;BME280;41060;47.510;8.680;2023-02-11T12:51:46;98851.00;;;8.77;34.92
55171;BME280;41060;47.510;8.680;2023-02-11T12:54:26;98852.09;;;8.92;34.16
55171;BME280;41060;47.510;8.680;2023-02-11T12:56:58;98848.34;;;8.98;34.17
55171;BME280;41060;47.510;8.680;2023-02-11T12:59:44;98842.91;;;9.20;33.63
55171;BME280;41060;47.510;8.680;2023-02-11T13:02:20;98832.41;;;9.18;32.62
55171;BME280;41060;47.510;8.680;2023-02-11T13:04:53;98825.63;;;9.50;32.88
55171;BME280;41060;47.510;8.680;2023-02-11T13:07:27;98784.81;;;9.55;32.69
55171;BME280;41060;47.510;8.680;2023-02-11T13:10:02;98830.34;;;9.97;32.08
55171;BME280;41060;47.510;8.680;2023-02-11T13:12:33;98802.72;;;9.85;32.38
55171;BME280;41060;47.510;8.680;2023-02-11T13:15:18;98824.44;;;10.43;31.65
55171;BME280;41060;47.510;8.680;2023-02-11T13:17:53;98820.69;;;10.64;30.94
55171;BME280;41060;47.510;8.680;2023-02-11T13:20:31;98816.25;;;10.48;30.67
55171;BME280;41060;47.510;8.680;2023-02-11T13:23:09;98792.41;;;10.48;30.59
55171;BME280;41060;47.510;8.680;2023-02-11T13:25:43;98815.56;;;10.44;30.51
55171;BME280;41060;47.510;8.680;2023-02-11T13:28:22;98812.19;;;10.41;30.20
55171;BME280;41060;47.510;8.680;2023-02-11T13:30:54;98767.69;;;9.97;30.84
55171;BME280;41060;47.510;8.680;2023-02-11T13:33:32;98806.44;;;10.32;30.86
55171;BME280;41060;47.510;8.680;2023-02-11T13:36:27;98782.00;;;10.27;30.28
55171;BME280;41060;47.510;8.680;2023-02-11T13:38:58;98697.97;;;9.81;29.80